createdAt,value
2018-06-22T00:00:30.326Z,12.98
2018-06-22T00:01:30.287Z,13.17
2018-06-22T00:02:30.270Z,13.05
2018-06-22T00:03:30.236Z,12.98
2018-06-22T00:04:30.206Z,12.90
2018-06-22T00:05:30.228Z,13.09
2018-06-22T00:06:30.158Z,13.09
2018-06-22T00:07:30.114Z,13.02
2018-06-22T00:08:30.081Z,13.09
2018-06-22T00:09:30.055Z,13.08
2018-06-22T00:10:30.026Z,12.96
2018-06-22T00:11:29.997Z,12.98
2018-06-22T00:12:29.993Z,12.99
2018-06-22T00:13:29.948Z,12.99
2018-06-22T00:14:29.921Z,13.05
2018-06-22T00:15:29.884Z,13.09
2018-06-22T00:16:29.861Z,13.06
2018-06-22T00:17:29.832Z,13.16
2018-06-22T00:18:29.818Z,13.16
2018-06-22T00:19:29.764Z,13.16
2018-06-22T00:20:29.733Z,13.21
2018-06-22T00:21:29.715Z,13.14
2018-06-22T00:22:29.679Z,13.14
2018-06-22T00:23:29.657Z,13.19
2018-06-22T00:24:29.654Z,13.09
2018-06-22T00:25:29.591Z,12.96
2018-06-22T00:26:29.566Z,12.93
2018-06-22T00:27:29.528Z,12.91
2018-06-22T00:28:29.497Z,12.88
2018-06-22T00:29:29.479Z,12.93
2018-06-22T00:30:29.447Z,12.86
2018-06-22T00:31:29.415Z,12.87
2018-06-22T00:32:29.397Z,12.87
2018-06-22T00:33:29.369Z,12.84
2018-06-22T00:34:29.330Z,12.77
2018-06-22T00:35:29.316Z,12.66
2018-06-22T00:36:29.263Z,12.69
2018-06-22T00:37:29.239Z,12.83
2018-06-22T00:38:29.228Z,12.80
2018-06-22T00:39:29.179Z,12.72
2018-06-22T00:40:29.240Z,12.66
2018-06-22T00:41:29.156Z,12.66
2018-06-22T00:42:29.088Z,12.69
2018-06-22T00:43:29.069Z,12.68
2018-06-22T00:44:29.043Z,12.68
2018-06-22T00:45:29.002Z,12.59
2018-06-22T00:46:28.975Z,12.47
2018-06-22T00:47:28.948Z,12.59
2018-06-22T00:48:28.915Z,12.62
2018-06-22T00:49:28.891Z,12.66
2018-06-22T00:50:28.853Z,12.43
2018-06-22T00:51:28.832Z,12.46
2018-06-22T00:52:28.820Z,12.48
2018-06-22T00:53:28.762Z,12.48
2018-06-22T00:54:28.742Z,12.48
2018-06-22T00:55:28.718Z,12.43
2018-06-22T00:56:28.683Z,12.44
2018-06-22T00:57:28.717Z,12.47
2018-06-22T00:58:28.666Z,12.43
2018-06-22T00:59:28.591Z,12.33
2018-06-22T01:00:28.564Z,12.35
2018-06-22T01:01:28.535Z,12.22
2018-06-22T01:02:28.513Z,12.30
2018-06-22T01:03:28.483Z,12.25
2018-06-22T01:04:28.462Z,12.29
2018-06-22T01:05:28.428Z,12.32
2018-06-22T01:06:28.386Z,12.38
2018-06-22T01:07:28.363Z,12.43
2018-06-22T01:08:28.330Z,12.46
2018-06-22T01:09:28.303Z,12.47
2018-06-22T01:10:28.268Z,12.44
2018-06-22T01:11:28.243Z,12.48
2018-06-22T01:12:28.226Z,12.44
2018-06-22T01:13:28.184Z,12.50
2018-06-22T01:14:28.163Z,12.43
2018-06-22T01:15:28.121Z,12.47
2018-06-22T01:16:28.093Z,12.46
2018-06-22T01:17:28.125Z,12.33
2018-06-22T01:18:28.086Z,12.30
2018-06-22T01:19:28.016Z,12.28
2018-06-22T01:20:27.972Z,12.36
2018-06-22T01:21:27.969Z,12.30
2018-06-22T01:22:27.918Z,12.26
2018-06-22T01:23:27.885Z,12.30
2018-06-22T01:24:27.850Z,12.28
2018-06-22T01:25:27.838Z,12.17
2018-06-22T01:26:27.823Z,12.21
2018-06-22T01:27:27.773Z,12.22
2018-06-22T01:28:27.764Z,12.26
2018-06-22T01:29:27.711Z,12.25
2018-06-22T01:30:27.697Z,12.21
2018-06-22T01:31:27.653Z,12.29
2018-06-22T01:32:27.657Z,12.35
2018-06-22T01:33:27.603Z,12.29
2018-06-22T01:34:27.597Z,12.30
2018-06-22T01:35:27.535Z,12.29
2018-06-22T01:36:27.562Z,12.29
2018-06-22T01:37:27.482Z,12.35
2018-06-22T01:38:27.482Z,12.30
2018-06-22T01:39:27.420Z,12.26
2018-06-22T01:40:27.404Z,12.29
2018-06-22T01:41:27.383Z,12.26
2018-06-22T01:42:27.356Z,12.28
2018-06-22T01:43:27.312Z,12.28
2018-06-22T01:44:27.315Z,12.38
2018-06-22T01:45:27.243Z,12.41
2018-06-22T01:46:27.206Z,12.36
2018-06-22T01:47:27.199Z,12.30
2018-06-22T01:48:27.141Z,12.41
2018-06-22T01:49:27.135Z,12.40
2018-06-22T01:50:27.081Z,12.43
2018-06-22T01:51:27.088Z,12.44
2018-06-22T01:52:27.028Z,12.44
2018-06-22T01:53:26.998Z,12.44
2018-06-22T01:54:26.975Z,12.44
2018-06-22T01:55:26.936Z,12.51
2018-06-22T01:56:26.933Z,12.62
2018-06-22T01:57:26.890Z,12.53
2018-06-22T01:58:26.906Z,12.61
2018-06-22T01:59:26.833Z,12.47
2018-06-22T02:00:26.820Z,12.47
2018-06-22T02:01:26.756Z,12.47
2018-06-22T02:02:26.743Z,12.47
2018-06-22T02:03:26.723Z,12.46
2018-06-22T02:04:26.716Z,12.50
2018-06-22T02:05:26.671Z,12.50
2018-06-22T02:06:26.660Z,12.44
2018-06-22T02:07:26.581Z,12.41
2018-06-22T02:08:26.554Z,12.40
2018-06-22T02:09:49.018Z,12.46
2018-06-22T02:11:30.567Z,12.43
2018-06-22T02:12:30.478Z,12.43
2018-06-22T02:14:36.289Z,12.36
2018-06-22T02:15:36.248Z,12.44
2018-06-22T02:17:40.611Z,12.51
2018-06-22T02:18:40.596Z,12.47
2018-06-22T02:20:45.056Z,12.50
2018-06-22T02:21:44.815Z,12.63
2018-06-22T02:23:39.399Z,12.55
2018-06-22T02:24:39.309Z,12.51
2018-06-22T02:26:42.286Z,12.47
2018-06-22T02:27:42.135Z,12.65
2018-06-22T02:29:49.000Z,12.63
2018-06-22T02:30:48.973Z,12.61
2018-06-22T02:32:52.936Z,12.71
2018-06-22T02:33:52.343Z,12.69
2018-06-22T02:35:57.656Z,12.69
2018-06-22T02:36:57.779Z,12.68
2018-06-22T02:37:57.475Z,12.65
2018-06-22T02:38:57.585Z,12.71
2018-06-22T02:39:57.500Z,12.63
2018-06-22T02:40:57.375Z,12.63
2018-06-22T02:41:57.349Z,12.63
2018-06-22T02:42:57.329Z,12.68
2018-06-22T02:43:57.293Z,12.65
2018-06-22T02:44:57.251Z,12.66
2018-06-22T02:45:57.228Z,12.69
2018-06-22T02:46:57.202Z,12.65
2018-06-22T02:47:57.175Z,12.76
2018-06-22T02:48:57.150Z,12.77
2018-06-22T02:49:57.124Z,12.80
2018-06-22T02:50:57.083Z,12.76
2018-06-22T02:51:57.065Z,12.76
2018-06-22T02:52:57.033Z,12.71
2018-06-22T02:53:56.995Z,12.83
2018-06-22T02:54:56.967Z,12.77
2018-06-22T02:55:56.931Z,12.73
2018-06-22T02:56:56.906Z,12.77
2018-06-22T02:57:56.873Z,12.84
2018-06-22T02:58:56.922Z,12.90
2018-06-22T02:59:56.883Z,12.79
2018-06-22T03:00:56.797Z,12.81
2018-06-22T03:01:56.761Z,12.86
2018-06-22T03:02:56.742Z,12.91
2018-06-22T03:03:56.714Z,12.87
2018-06-22T03:04:56.722Z,12.80
2018-06-22T03:05:56.649Z,12.91
2018-06-22T03:06:56.671Z,12.79
2018-06-22T03:07:56.588Z,12.83
2018-06-22T03:08:56.552Z,12.87
2018-06-22T03:09:56.520Z,12.88
2018-06-22T03:10:56.489Z,12.88
2018-06-22T03:11:56.467Z,12.87
2018-06-22T03:12:56.437Z,12.83
2018-06-22T03:13:56.407Z,12.76
2018-06-22T03:14:56.382Z,12.86
2018-06-22T03:15:56.393Z,12.86
2018-06-22T03:16:56.318Z,12.88
2018-06-22T03:17:56.293Z,12.84
2018-06-22T03:18:56.262Z,12.84
2018-06-22T03:19:56.243Z,12.86
2018-06-22T03:20:56.210Z,12.93
2018-06-22T03:21:56.164Z,12.93
2018-06-22T03:22:56.138Z,12.87
2018-06-22T03:23:56.124Z,12.95
2018-06-22T03:24:56.080Z,12.93
2018-06-22T03:25:56.068Z,12.91
2018-06-22T03:26:56.028Z,12.79
2018-06-22T03:27:55.990Z,12.80
2018-06-22T03:28:55.966Z,12.81
2018-06-22T03:29:55.971Z,12.86
2018-06-22T03:30:55.917Z,12.87
2018-06-22T03:31:55.903Z,12.76
2018-06-22T03:32:55.855Z,12.91
2018-06-22T03:33:55.824Z,12.83
2018-06-22T03:34:55.799Z,12.91
2018-06-22T03:35:55.768Z,12.96
2018-06-22T03:36:55.755Z,12.96
2018-06-22T03:37:55.706Z,12.91
2018-06-22T03:38:55.683Z,13.01
2018-06-22T03:39:55.639Z,13.02
2018-06-22T03:40:55.635Z,12.96
2018-06-22T03:41:55.657Z,12.88
2018-06-22T03:42:55.614Z,12.99
2018-06-22T03:43:55.577Z,12.91
2018-06-22T03:44:55.493Z,12.96
2018-06-22T03:45:55.461Z,12.99
2018-06-22T03:46:55.450Z,13.08
2018-06-22T03:47:55.398Z,13.01
2018-06-22T03:48:55.445Z,13.04
2018-06-22T03:49:55.345Z,13.13
2018-06-22T03:50:55.311Z,13.09
2018-06-22T03:51:55.293Z,13.13
2018-06-22T03:52:55.263Z,13.05
2018-06-22T03:53:55.224Z,13.06
2018-06-22T03:54:55.202Z,13.13
2018-06-22T03:55:55.171Z,13.21
2018-06-22T03:56:55.154Z,13.16
2018-06-22T03:57:55.113Z,13.19
2018-06-22T03:58:55.085Z,13.26
2018-06-22T03:59:55.046Z,13.29
2018-06-22T04:00:55.047Z,13.20
2018-06-22T04:01:54.994Z,13.23
2018-06-22T04:02:54.972Z,13.21
2018-06-22T04:03:54.932Z,13.17
2018-06-22T04:04:54.902Z,13.26
2018-06-22T04:05:54.884Z,13.35
2018-06-22T04:06:54.849Z,13.35
2018-06-22T04:07:54.814Z,13.45
2018-06-22T04:08:54.798Z,13.45
2018-06-22T04:09:54.754Z,13.40
2018-06-22T04:10:54.729Z,13.47
2018-06-22T04:11:54.715Z,13.36
2018-06-22T04:12:54.673Z,13.29
2018-06-22T04:13:54.634Z,13.36
2018-06-22T04:14:54.606Z,13.39
2018-06-22T04:15:54.584Z,13.39
2018-06-22T04:16:54.557Z,13.46
2018-06-22T04:17:54.523Z,13.45
2018-06-22T04:18:54.489Z,13.46
2018-06-22T04:19:54.460Z,13.47
2018-06-22T04:20:54.434Z,13.38
2018-06-22T04:21:54.407Z,13.54
2018-06-22T04:22:54.372Z,13.46
2018-06-22T04:23:54.347Z,13.40
2018-06-22T04:24:54.319Z,13.38
2018-06-22T04:25:54.282Z,13.38
2018-06-22T04:26:54.372Z,13.42
2018-06-22T04:27:54.225Z,13.46
2018-06-22T04:28:54.209Z,13.49
2018-06-22T04:29:54.178Z,13.46
2018-06-22T04:30:54.144Z,13.39
2018-06-22T04:31:54.112Z,13.42
2018-06-22T04:32:54.077Z,13.60
2018-06-22T04:33:54.045Z,13.51
2018-06-22T04:34:54.084Z,13.53
2018-06-22T04:35:53.999Z,13.51
2018-06-22T04:36:53.970Z,13.55
2018-06-22T04:37:53.936Z,13.54
2018-06-22T04:38:53.906Z,13.65
2018-06-22T04:39:53.875Z,13.49
2018-06-22T04:40:53.879Z,13.51
2018-06-22T04:41:53.826Z,13.58
2018-06-22T04:42:53.790Z,13.68
2018-06-22T04:43:53.764Z,13.61
2018-06-22T04:44:53.746Z,13.68
2018-06-22T04:45:53.706Z,13.57
2018-06-22T04:46:53.709Z,13.57
2018-06-22T04:47:53.648Z,13.54
2018-06-22T04:48:53.630Z,13.55
2018-06-22T04:49:53.598Z,13.67
2018-06-22T04:50:53.553Z,13.68
2018-06-22T04:51:53.562Z,13.68
2018-06-22T04:52:53.546Z,13.82
2018-06-22T04:53:53.467Z,13.80
2018-06-22T04:54:53.438Z,13.79
2018-06-22T04:55:53.411Z,13.61
2018-06-22T04:56:53.381Z,13.63
2018-06-22T04:57:53.374Z,13.72
2018-06-22T04:58:53.326Z,13.75
2018-06-22T05:00:08.339Z,13.80
2018-06-22T05:01:55.247Z,13.72
2018-06-22T05:02:54.847Z,13.76
2018-06-22T05:03:54.899Z,13.78
2018-06-22T05:04:54.793Z,13.76
2018-06-22T05:05:56.705Z,13.53
2018-06-22T05:06:54.682Z,13.51
2018-06-22T05:07:54.659Z,13.68
2018-06-22T05:08:54.621Z,13.73
2018-06-22T05:09:54.606Z,13.55
2018-06-22T05:10:54.566Z,13.64
2018-06-22T05:11:56.198Z,13.58
2018-06-22T05:12:54.500Z,13.54
2018-06-22T05:13:54.472Z,13.61
2018-06-22T05:14:54.444Z,13.65
2018-06-22T05:15:54.431Z,13.61
2018-06-22T05:16:54.387Z,13.61
2018-06-22T05:17:54.360Z,13.63
2018-06-22T05:18:54.381Z,13.63
2018-06-22T05:19:54.309Z,13.51
2018-06-22T05:20:54.278Z,13.61
2018-06-22T05:21:54.244Z,13.55
2018-06-22T05:22:54.304Z,13.60
2018-06-22T05:23:56.710Z,13.63
2018-06-22T05:24:54.247Z,13.75
2018-06-22T05:25:54.126Z,13.72
2018-06-22T05:26:54.108Z,13.73
2018-06-22T05:27:54.117Z,13.78
2018-06-22T05:28:54.228Z,13.78
2018-06-22T05:29:54.023Z,13.83
2018-06-22T05:30:54.026Z,13.72
2018-06-22T05:31:53.947Z,13.65
2018-06-22T05:32:53.943Z,13.61
2018-06-22T05:33:53.899Z,13.53
2018-06-22T05:34:53.866Z,13.61
2018-06-22T05:35:53.906Z,13.65
2018-06-22T05:36:53.805Z,13.61
2018-06-22T05:37:53.782Z,13.64
2018-06-22T05:38:53.752Z,13.72
2018-06-22T05:39:53.722Z,13.71
2018-06-22T05:40:53.693Z,13.54
2018-06-22T05:41:53.662Z,13.49
2018-06-22T05:42:53.634Z,13.68
2018-06-22T05:43:53.605Z,13.72
2018-06-22T05:44:53.573Z,13.71
2018-06-22T05:45:53.545Z,13.75
2018-06-22T05:46:53.515Z,13.79
2018-06-22T05:47:53.491Z,13.78
2018-06-22T05:48:53.454Z,13.72
2018-06-22T05:49:53.431Z,13.78
2018-06-22T05:50:53.450Z,13.75
2018-06-22T05:51:53.362Z,13.90
2018-06-22T05:52:53.355Z,13.72
2018-06-22T05:53:53.321Z,13.71
2018-06-22T05:54:53.289Z,13.75
2018-06-22T05:55:53.257Z,13.82
2018-06-22T05:56:53.252Z,13.88
2018-06-22T05:57:53.199Z,13.82
2018-06-22T05:58:53.176Z,13.75
2018-06-22T05:59:53.176Z,13.76
2018-06-22T06:00:53.113Z,13.80
2018-06-22T06:01:53.084Z,13.71
2018-06-22T06:02:53.057Z,13.75
2018-06-22T06:03:53.037Z,13.72
2018-06-22T06:04:53.007Z,13.61
2018-06-22T06:05:53.021Z,13.53
2018-06-22T06:06:52.933Z,13.63
2018-06-22T06:07:52.911Z,13.63
2018-06-22T06:08:52.873Z,13.55
2018-06-22T06:09:52.851Z,13.53
2018-06-22T06:10:52.824Z,13.54
2018-06-22T06:11:52.786Z,13.55
2018-06-22T06:12:52.762Z,13.54
2018-06-22T06:13:52.737Z,13.71
2018-06-22T06:14:52.706Z,13.80
2018-06-22T06:15:52.683Z,13.64
2018-06-22T06:16:52.759Z,13.65
2018-06-22T06:17:52.614Z,13.58
2018-06-22T06:18:52.616Z,13.64
2018-06-22T06:19:52.558Z,13.71
2018-06-22T06:20:52.529Z,13.73
2018-06-22T06:21:52.506Z,13.72
2018-06-22T06:22:52.481Z,13.72
2018-06-22T06:23:52.444Z,13.67
2018-06-22T06:24:52.426Z,13.76
2018-06-22T06:25:52.400Z,13.79
2018-06-22T06:26:52.367Z,13.75
2018-06-22T06:27:52.347Z,13.71
2018-06-22T06:28:52.290Z,13.72
2018-06-22T06:29:52.271Z,13.71
2018-06-22T06:30:52.240Z,13.76
2018-06-22T06:31:52.208Z,13.79
2018-06-22T06:33:10.060Z,13.72
2018-06-22T06:34:50.115Z,13.79
2018-06-22T06:35:49.988Z,13.90
2018-06-22T06:36:49.992Z,13.88
2018-06-22T06:37:50.098Z,13.94
2018-06-22T06:38:49.902Z,14.04
2018-06-22T06:39:49.866Z,14.05
2018-06-22T06:40:49.837Z,14.03
2018-06-22T06:41:49.839Z,14.03
2018-06-22T06:42:49.777Z,13.98
2018-06-22T06:43:49.746Z,13.97
2018-06-22T06:44:49.734Z,13.93
2018-06-22T06:45:49.709Z,13.85
2018-06-22T06:46:49.665Z,13.83
2018-06-22T06:47:49.640Z,13.73
2018-06-22T06:48:49.616Z,13.83
2018-06-22T06:49:49.601Z,13.86
2018-06-22T06:50:49.548Z,13.86
2018-06-22T06:51:49.515Z,13.82
2018-06-22T06:52:49.498Z,13.93
2018-06-22T06:53:49.466Z,13.96
2018-06-22T06:54:49.430Z,13.93
2018-06-22T06:55:49.401Z,13.93
2018-06-22T06:56:49.412Z,14.01
2018-06-22T06:57:49.343Z,14.03
2018-06-22T06:58:49.319Z,14.08
2018-06-22T06:59:49.285Z,14.03
2018-06-22T07:00:49.260Z,14.11
2018-06-22T07:01:49.232Z,14.09
2018-06-22T07:02:49.203Z,14.05
2018-06-22T07:03:49.168Z,14.09
2018-06-22T07:04:49.136Z,14.13
2018-06-22T07:05:49.117Z,14.19
2018-06-22T07:06:49.087Z,14.19
2018-06-22T07:07:49.060Z,14.11
2018-06-22T07:08:49.031Z,14.13
2018-06-22T07:09:49.003Z,14.12
2018-06-22T07:10:48.982Z,14.22
2018-06-22T07:11:48.948Z,14.04
2018-06-22T07:12:48.924Z,14.18
2018-06-22T07:13:48.938Z,14.16
2018-06-22T07:14:48.887Z,14.22
2018-06-22T07:15:48.835Z,14.09
2018-06-22T07:16:48.852Z,14.19
2018-06-22T07:17:48.784Z,14.21
2018-06-22T07:18:48.769Z,14.18
2018-06-22T07:19:49.524Z,14.22
2018-06-22T07:20:48.711Z,14.31
2018-06-22T07:21:48.661Z,14.33
2018-06-22T07:22:48.626Z,14.46
2018-06-22T07:23:48.597Z,14.41
2018-06-22T07:24:48.586Z,14.44
2018-06-22T07:25:48.539Z,14.46
2018-06-22T07:26:48.514Z,14.52
2018-06-22T07:27:48.503Z,14.40
2018-06-22T07:28:48.450Z,14.26
2018-06-22T07:29:48.428Z,14.08
2018-06-22T07:30:48.448Z,14.00
2018-06-22T07:31:48.375Z,13.94
2018-06-22T07:32:48.349Z,13.94
2018-06-22T07:33:48.342Z,13.83
2018-06-22T07:34:48.303Z,13.79
2018-06-22T07:35:48.289Z,13.91
2018-06-22T07:36:48.262Z,13.93
2018-06-22T07:37:48.222Z,13.91
2018-06-22T07:38:48.185Z,13.96
2018-06-22T07:39:48.176Z,13.90
2018-06-22T07:40:48.127Z,14.04
2018-06-22T07:41:48.094Z,14.03
2018-06-22T07:42:48.124Z,13.97
2018-06-22T07:43:48.050Z,14.04
2018-06-22T07:44:48.017Z,13.91
2018-06-22T07:45:47.968Z,14.04
2018-06-22T07:46:47.942Z,14.08
2018-06-22T07:47:47.956Z,14.00
2018-06-22T07:48:47.877Z,14.01
2018-06-22T07:49:47.899Z,13.96
2018-06-22T07:50:47.832Z,13.93
2018-06-22T07:51:47.796Z,13.93
2018-06-22T07:52:47.763Z,13.93
2018-06-22T07:53:47.763Z,13.88
2018-06-22T07:54:47.700Z,13.96
2018-06-22T07:55:47.674Z,13.93
2018-06-22T07:56:47.653Z,13.93
2018-06-22T07:57:47.618Z,13.90
2018-06-22T07:58:47.590Z,13.97
2018-06-22T07:59:47.556Z,13.96
2018-06-22T08:00:47.538Z,13.85
2018-06-22T08:01:47.524Z,14.00
2018-06-22T08:02:47.473Z,14.05
2018-06-22T08:03:47.447Z,14.01
2018-06-22T08:04:47.435Z,13.91
2018-06-22T08:05:47.391Z,13.54
2018-06-22T08:06:47.354Z,13.42
2018-06-22T08:07:47.366Z,13.23
2018-06-22T08:08:47.297Z,13.16
2018-06-22T08:09:47.284Z,13.21
2018-06-22T08:10:47.246Z,13.29
2018-06-22T08:11:47.206Z,13.29
2018-06-22T08:12:47.181Z,13.38
2018-06-22T08:13:47.175Z,13.43
2018-06-22T08:14:47.125Z,13.53
2018-06-22T08:15:47.106Z,13.51
2018-06-22T08:16:47.076Z,13.40
2018-06-22T08:17:47.039Z,13.64
2018-06-22T08:18:47.019Z,13.68
2018-06-22T08:19:46.973Z,13.63
2018-06-22T08:20:46.945Z,13.76
2018-06-22T08:21:46.915Z,13.83
2018-06-22T08:22:46.943Z,13.88
2018-06-22T08:23:46.870Z,14.09
2018-06-22T08:24:46.845Z,14.19
2018-06-22T08:25:46.796Z,14.34
2018-06-22T08:26:46.782Z,14.61
2018-06-22T08:27:46.817Z,14.70
2018-06-22T08:28:46.729Z,14.51
2018-06-22T08:29:46.696Z,14.67
2018-06-22T08:30:46.660Z,14.74
2018-06-22T08:31:46.634Z,14.93
2018-06-22T08:32:46.600Z,14.87
2018-06-22T08:33:46.568Z,15.10
2018-06-22T08:34:46.595Z,14.99
2018-06-22T08:35:46.525Z,15.10
2018-06-22T08:36:46.509Z,14.99
2018-06-22T08:37:46.485Z,15.10
2018-06-22T08:38:46.455Z,15.14
2018-06-22T08:39:46.433Z,15.12
2018-06-22T08:40:46.381Z,15.11
2018-06-22T08:41:46.439Z,15.23
2018-06-22T08:42:46.326Z,15.12
2018-06-22T08:43:46.300Z,15.12
2018-06-22T08:44:46.266Z,15.10
2018-06-22T08:45:46.239Z,15.10
2018-06-22T08:46:46.219Z,14.93
2018-06-22T08:47:46.187Z,14.95
2018-06-22T08:48:46.165Z,14.93
2018-06-22T08:49:46.137Z,14.95
2018-06-22T08:50:46.109Z,14.86
2018-06-22T08:51:46.074Z,14.89
2018-06-22T08:52:46.043Z,14.90
2018-06-22T08:53:46.067Z,14.89
2018-06-22T08:54:45.993Z,14.89
2018-06-22T08:55:46.021Z,14.69
2018-06-22T08:56:45.995Z,14.59
2018-06-22T08:57:45.939Z,14.67
2018-06-22T08:58:45.882Z,14.22
2018-06-22T08:59:45.858Z,14.31
2018-06-22T09:00:45.831Z,14.41
2018-06-22T09:01:45.802Z,14.44
2018-06-22T09:02:45.784Z,14.40
2018-06-22T09:03:45.745Z,14.48
2018-06-22T09:04:45.717Z,14.52
2018-06-22T09:05:45.690Z,14.38
2018-06-22T09:06:45.666Z,14.41
2018-06-22T09:07:45.634Z,14.51
2018-06-22T09:08:45.620Z,14.82
2018-06-22T09:09:45.596Z,14.67
2018-06-22T09:10:45.559Z,14.67
2018-06-22T09:11:45.530Z,14.63
2018-06-22T09:12:45.497Z,14.34
2018-06-22T09:13:45.494Z,14.48
2018-06-22T09:14:45.483Z,14.58
2018-06-22T09:15:45.420Z,14.51
2018-06-22T09:16:45.390Z,14.49
2018-06-22T09:17:45.370Z,14.49
2018-06-22T09:19:01.477Z,14.36
2018-06-22T09:19:45.582Z,14.70
2018-06-22T09:21:14.305Z,14.97
2018-06-22T09:21:45.250Z,15.14
2018-06-22T09:22:45.225Z,15.26
2018-06-22T09:23:45.198Z,15.20
2018-06-22T09:24:45.167Z,15.29
2018-06-22T09:25:45.142Z,15.32
2018-06-22T09:26:45.119Z,15.22
2018-06-22T09:27:45.088Z,15.10
2018-06-22T09:28:45.064Z,15.25
2018-06-22T09:29:45.037Z,15.23
2018-06-22T09:30:45.004Z,15.01
2018-06-22T09:31:44.982Z,15.20
2018-06-22T09:32:44.946Z,15.38
2018-06-22T09:33:44.921Z,15.41
2018-06-22T09:34:44.904Z,15.43
2018-06-22T09:35:44.906Z,15.38
2018-06-22T09:36:44.879Z,15.68
2018-06-22T09:37:44.899Z,15.73
2018-06-22T09:38:44.786Z,16.17
2018-06-22T09:39:44.757Z,16.37
2018-06-22T09:40:44.736Z,16.25
2018-06-22T09:41:44.724Z,16.42
2018-06-22T09:42:44.784Z,16.00
2018-06-22T09:43:44.739Z,15.93
2018-06-22T09:44:44.629Z,15.70
2018-06-22T09:45:44.595Z,15.73
2018-06-22T09:46:44.570Z,15.65
2018-06-22T09:47:44.550Z,15.84
2018-06-22T09:48:44.521Z,16.22
2018-06-22T09:49:44.492Z,16.32
2018-06-22T09:50:44.507Z,16.28
2018-06-22T09:51:44.429Z,16.25
2018-06-22T09:52:44.408Z,16.47
2018-06-22T09:53:44.428Z,16.51
2018-06-22T09:54:44.352Z,16.44
2018-06-22T09:55:44.340Z,16.43
2018-06-22T09:56:44.377Z,16.00
2018-06-22T09:57:44.276Z,16.14
2018-06-22T09:58:44.246Z,15.98
2018-06-22T09:59:44.253Z,15.90
2018-06-22T10:00:44.200Z,15.91
2018-06-22T10:01:44.171Z,15.63
2018-06-22T10:02:44.153Z,15.43
2018-06-22T10:03:44.116Z,15.29
2018-06-22T10:04:44.152Z,15.35
2018-06-22T10:05:44.067Z,15.45
2018-06-22T10:06:44.037Z,15.63
2018-06-22T10:07:44.017Z,15.63
2018-06-22T10:08:44.012Z,15.60
2018-06-22T10:09:43.952Z,15.73
2018-06-22T10:10:43.936Z,15.76
2018-06-22T10:11:43.912Z,15.81
2018-06-22T10:12:43.871Z,15.60
2018-06-22T10:13:43.849Z,15.35
2018-06-22T10:14:43.822Z,15.23
2018-06-22T10:15:43.792Z,15.14
2018-06-22T10:16:43.763Z,15.29
2018-06-22T10:17:43.743Z,15.07
2018-06-22T10:18:43.705Z,14.99
2018-06-22T10:19:43.712Z,14.95
2018-06-22T10:20:43.660Z,14.96
2018-06-22T10:21:43.629Z,14.96
2018-06-22T10:22:43.602Z,15.04
2018-06-22T10:23:43.574Z,14.77
2018-06-22T10:24:43.547Z,14.78
2018-06-22T10:25:43.524Z,14.82
2018-06-22T10:26:43.492Z,14.85
2018-06-22T10:27:43.466Z,14.77
2018-06-22T10:28:43.442Z,14.69
2018-06-22T10:29:43.468Z,14.78
2018-06-22T10:30:43.416Z,14.83
2018-06-22T10:31:43.360Z,15.08
2018-06-22T10:32:43.326Z,15.23
2018-06-22T10:33:43.313Z,15.04
2018-06-22T10:34:43.273Z,15.27
2018-06-22T10:35:43.254Z,15.41
2018-06-22T10:36:43.211Z,15.59
2018-06-22T10:37:43.183Z,15.65
2018-06-22T10:38:43.236Z,15.65
2018-06-22T10:39:43.135Z,15.84
2018-06-22T10:40:43.115Z,15.91
2018-06-22T10:41:43.079Z,16.18
2018-06-22T10:42:43.051Z,16.37
2018-06-22T10:43:43.012Z,16.32
2018-06-22T10:44:43.012Z,16.24
2018-06-22T10:45:43.023Z,16.32
2018-06-22T10:46:42.939Z,16.03
2018-06-22T10:47:42.918Z,15.98
2018-06-22T10:48:42.889Z,15.66
2018-06-22T10:49:42.864Z,15.50
2018-06-22T10:50:42.825Z,15.44
2018-06-22T10:51:42.849Z,15.36
2018-06-22T10:52:42.853Z,15.29
2018-06-22T10:53:42.770Z,15.26
2018-06-22T10:54:42.731Z,15.36
2018-06-22T10:55:42.685Z,15.36
2018-06-22T10:56:42.660Z,15.50
2018-06-22T10:57:42.634Z,15.85
2018-06-22T10:58:42.616Z,15.95
2018-06-22T10:59:42.605Z,16.24
2018-06-22T11:00:42.558Z,16.42
2018-06-22T11:01:42.532Z,16.64
2018-06-22T11:02:42.492Z,16.67
2018-06-22T11:03:42.476Z,16.69
2018-06-22T11:04:42.447Z,16.88
2018-06-22T11:05:42.478Z,16.77
2018-06-22T11:06:42.394Z,16.77
2018-06-22T11:07:43.208Z,16.69
2018-06-22T11:08:42.338Z,16.51
2018-06-22T11:09:42.440Z,16.34
2018-06-22T11:10:42.318Z,16.29
2018-06-22T11:11:42.265Z,16.18
2018-06-22T11:12:42.261Z,16.13
2018-06-22T11:13:42.215Z,16.21
2018-06-22T11:14:42.204Z,16.24
2018-06-22T11:15:42.166Z,15.95
2018-06-22T11:16:42.175Z,15.99
2018-06-22T11:17:42.151Z,16.05
2018-06-22T11:18:42.082Z,16.14
2018-06-22T11:19:42.039Z,16.18
2018-06-22T11:20:42.056Z,16.28
2018-06-22T11:21:41.992Z,16.34
2018-06-22T11:22:41.959Z,16.52
2018-06-22T11:23:41.949Z,16.58
2018-06-22T11:24:41.914Z,16.40
2018-06-22T11:25:41.883Z,16.36
2018-06-22T11:26:41.866Z,16.61
2018-06-22T11:27:41.841Z,16.69
2018-06-22T11:28:41.817Z,16.69
2018-06-22T11:29:41.793Z,16.77
2018-06-22T11:30:41.770Z,16.88
2018-06-22T11:31:41.731Z,17.20
2018-06-22T11:32:41.709Z,17.45
2018-06-22T11:33:41.687Z,17.56
2018-06-22T11:34:41.649Z,17.34
2018-06-22T11:35:41.647Z,17.88
2018-06-22T11:36:41.593Z,18.56
2018-06-22T11:37:41.570Z,18.12
2018-06-22T11:38:41.554Z,18.18
2018-06-22T11:39:41.565Z,17.75
2018-06-22T11:40:41.489Z,17.72
2018-06-22T11:41:41.465Z,17.91
2018-06-22T11:42:41.428Z,18.38
2018-06-22T11:43:41.409Z,19.07
2018-06-22T11:44:41.424Z,19.82
2018-06-22T11:45:41.429Z,20.48
2018-06-22T11:46:41.341Z,21.00
2018-06-22T11:47:41.324Z,20.48
2018-06-22T11:48:41.345Z,20.70
2018-06-22T11:49:41.325Z,20.11
2018-06-22T11:50:41.232Z,19.56
2018-06-22T11:51:41.199Z,18.94
2018-06-22T11:52:41.182Z,18.82
2018-06-22T11:53:41.158Z,18.54
2018-06-22T11:54:41.127Z,18.43
2018-06-22T11:55:41.115Z,18.12
2018-06-22T11:56:41.086Z,18.17
2018-06-22T11:57:41.065Z,17.96
2018-06-22T11:58:41.048Z,18.41
2018-06-22T11:59:41.011Z,18.83
2018-06-22T12:00:40.984Z,18.63
2018-06-22T12:01:41.006Z,18.41
2018-06-22T12:02:40.932Z,18.63
2018-06-22T12:03:40.916Z,18.86
2018-06-22T12:04:40.897Z,18.89
2018-06-22T12:05:40.883Z,18.89
2018-06-22T12:06:40.832Z,18.64
2018-06-22T12:07:40.862Z,18.39
2018-06-22T12:08:40.792Z,18.30
2018-06-22T12:09:40.768Z,18.45
2018-06-22T12:10:40.757Z,18.70
2018-06-22T12:11:40.717Z,18.74
2018-06-22T12:12:40.692Z,18.58
2018-06-22T12:13:40.733Z,18.86
2018-06-22T12:14:40.682Z,19.84
2018-06-22T12:15:40.626Z,20.46
2018-06-22T12:16:40.594Z,19.86
2018-06-22T12:17:40.589Z,20.70
2018-06-22T12:18:40.556Z,20.82
2018-06-22T12:19:40.516Z,21.00
2018-06-22T12:20:40.690Z,20.34
2018-06-22T12:21:40.519Z,20.05
2018-06-22T12:22:40.455Z,19.63
2018-06-22T12:23:40.435Z,19.30
2018-06-22T12:24:40.409Z,18.85
2018-06-22T12:25:40.381Z,18.71
2018-06-22T12:26:40.366Z,18.71
2018-06-22T12:27:40.385Z,18.64
2018-06-22T12:28:40.315Z,18.75
2018-06-22T12:29:40.297Z,18.86
2018-06-22T12:30:40.279Z,19.09
2018-06-22T12:31:40.252Z,19.50
2018-06-22T12:32:40.230Z,20.19
2018-06-22T12:33:40.200Z,21.01
2018-06-22T12:34:40.263Z,21.20
2018-06-22T12:35:40.259Z,20.41
2018-06-22T12:36:40.131Z,20.05
2018-06-22T12:37:40.136Z,19.87
2018-06-22T12:38:40.082Z,20.04
2018-06-22T12:39:40.120Z,21.37
2018-06-22T12:40:40.066Z,21.05
2018-06-22T12:41:40.015Z,21.73
2018-06-22T12:42:39.992Z,22.12
2018-06-22T12:43:39.962Z,21.81
2018-06-22T12:44:39.944Z,21.98
2018-06-22T12:45:39.982Z,22.56
2018-06-22T12:46:40.012Z,22.13
2018-06-22T12:47:39.916Z,21.40
2018-06-22T12:48:39.858Z,20.77
2018-06-22T12:49:39.835Z,20.23
2018-06-22T12:50:39.864Z,20.98
2018-06-22T12:51:39.791Z,20.60
2018-06-22T12:52:39.766Z,20.93
2018-06-22T12:53:39.763Z,21.63
2018-06-22T12:54:39.740Z,21.90
2018-06-22T12:55:39.703Z,21.25
2018-06-22T12:56:39.686Z,20.79
2018-06-22T12:57:39.685Z,20.22
2018-06-22T12:58:39.637Z,20.17
2018-06-22T12:59:39.622Z,19.84
2018-06-22T13:00:39.594Z,19.84
2018-06-22T13:01:39.571Z,20.04
2018-06-22T13:02:39.555Z,19.86
2018-06-22T13:03:39.554Z,19.99